Time;durP1;ratioP1;P1;durP2;ratioP2;P2;SDS_P1;SDS_P2;PMS_P1;PMS_P2;Temp;Humidity;BMP_temperature;BMP_pressure;BME280_temperature;BME280_humidity;BME280_pressure;Samples;Min_cycle;Max_cycle;Signal;HPM_P1;HPM_P2
2021/11/29 00:02:23;;;;;;;15.83;8.57;;;;;;;9.60;100.00;98627.86;1790996;80;21063;-72
2021/11/29 00:04:50;;;;;;;17.43;9.73;;;;;;;9.63;100.00;98633.37;1790955;80;21038;-73
2021/11/29 00:07:18;;;;;;;19.30;10.20;;;;;;;9.64;100.00;98647.19;1790682;80;21003;-72
2021/11/29 00:09:46;;;;;;;15.93;9.03;;;;;;;9.67;100.00;98642.75;1790829;80;21081;-71
2021/11/29 00:12:15;;;;;;;20.30;10.70;;;;;;;9.69;100.00;98642.03;1753171;82;21019;-72
2021/11/29 00:14:42;;;;;;;20.03;12.03;;;;;;;9.71;100.00;98643.19;1790748;79;21062;-71
2021/11/29 00:17:11;;;;;;;21.27;10.53;;;;;;;9.71;100.00;98647.23;1790734;79;21033;-72
2021/11/29 00:19:38;;;;;;;22.73;12.30;;;;;;;9.71;100.00;98648.06;1791027;80;20963;-73
2021/11/29 00:22:06;;;;;;;19.20;10.83;;;;;;;9.72;100.00;98647.53;1771132;80;21022;-73
2021/11/29 00:24:33;;;;;;;20.03;10.63;;;;;;;9.72;100.00;98649.73;1790938;80;21551;-72
2021/11/29 00:27:03;;;;;;;20.93;11.93;;;;;;;9.73;100.00;98656.78;1790653;80;21006;-74
2021/11/29 00:29:30;;;;;;;20.33;11.27;;;;;;;9.72;100.00;98649.73;1788305;80;21102;-72
2021/11/29 00:31:57;;;;;;;20.20;11.30;;;;;;;9.71;100.00;98641.84;1782442;80;21041;-72
2021/11/29 00:34:24;;;;;;;20.90;12.30;;;;;;;9.71;100.00;98644.02;1782414;80;21011;-73
2021/11/29 00:36:53;;;;;;;21.17;11.70;;;;;;;9.73;100.00;98645.16;1782401;80;21000;-73
2021/11/29 00:39:20;;;;;;;22.97;13.23;;;;;;;9.73;100.00;98631.67;1782327;80;21046;-72
2021/11/29 00:41:48;;;;;;;20.47;11.57;;;;;;;9.74;100.00;98636.02;1782243;80;20999;-74
2021/11/29 00:44:15;;;;;;;18.80;10.90;;;;;;;9.74;100.00;98633.31;1782610;80;21034;-72
2021/11/29 00:46:44;;;;;;;17.97;10.57;;;;;;;9.74;100.00;98640.06;1782190;80;21038;-73
2021/11/29 00:49:11;;;;;;;16.63;10.13;;;;;;;9.74;100.00;98628.77;1782437;80;21015;-71
2021/11/29 00:51:38;;;;;;;16.63;9.73;;;;;;;9.76;100.00;98624.53;1782404;80;21082;-74
2021/11/29 00:54:05;;;;;;;18.73;10.80;;;;;;;9.76;100.00;98622.66;1782461;80;21006;-72
2021/11/29 00:56:33;;;;;;;19.20;11.13;;;;;;;9.75;100.00;98620.97;1782268;80;21027;-73
2021/11/29 00:59:00;;;;;;;19.87;11.00;;;;;;;9.75;100.00;98614.23;1782245;80;21493;-72
2021/11/29 01:01:27;;;;;;;21.93;11.30;;;;;;;9.76;100.00;98621.30;1782332;80;21014;-72
2021/11/29 01:03:54;;;;;;;23.07;12.13;;;;;;;9.77;100.00;98623.47;1782517;80;20983;-73
2021/11/29 01:06:20;;;;;;;20.47;11.87;;;;;;;9.76;100.00;98622.66;1782418;80;20995;-72
2021/11/29 01:08:47;;;;;;;21.90;12.70;;;;;;;9.78;100.00;98622.45;1782345;80;21038;-72
2021/11/29 01:11:13;;;;;;;24.93;13.23;;;;;;;9.77;100.00;98614.85;1782358;80;21008;-73
2021/11/29 01:13:41;;;;;;;22.13;12.87;;;;;;;9.77;100.00;98612.16;1771567;80;21533;-73
2021/11/29 01:16:09;;;;;;;21.23;12.03;;;;;;;9.78;100.00;98608.95;1770800;80;21055;-72
2021/11/29 01:18:36;;;;;;;20.60;12.20;;;;;;;9.78;100.00;98609.78;1782518;80;20975;-71
2021/11/29 01:21:03;;;;;;;20.33;11.80;;;;;;;9.78;100.00;98600.86;1780762;80;20985;-73
2021/11/29 01:23:30;;;;;;;19.87;11.30;;;;;;;9.79;100.00;98602.02;1780203;81;21350;-73
2021/11/29 01:25:57;;;;;;;20.23;11.50;;;;;;;9.78;100.00;98588.72;1780840;81;21067;-73
2021/11/29 01:28:25;;;;;;;21.13;11.80;;;;;;;9.79;100.00;98583.12;1780717;81;20972;-72
2021/11/29 01:30:52;;;;;;;23.00;12.70;;;;;;;9.78;100.00;98577.39;1780435;80;21072;-72
2021/11/29 01:33:19;;;;;;;20.13;11.87;;;;;;;9.78;100.00;98579.27;1780765;81;20993;-71
2021/11/29 01:35:46;;;;;;;18.90;11.17;;;;;;;9.78;100.00;98575.22;1780538;81;21031;-72
2021/11/29 01:38:13;;;;;;;19.23;10.83;;;;;;;9.79;100.00;98579.06;1780896;81;21028;-71
2021/11/29 01:40:40;;;;;;;20.17;11.47;;;;;;;9.80;100.00;98586.64;1780562;81;21072;-72
2021/11/29 01:43:13;;;;;;;18.87;11.27;;;;;;;9.80;100.00;98580.72;1780653;81;21027;-72
2021/11/29 01:45:47;;;;;;;19.48;11.50;;;;;;;9.81;100.00;98574.79;1780819;81;20981;-72
2021/11/29 01:48:14;;;;;;;20.27;11.83;;;;;;;9.82;100.00;98565.14;1656272;87;21019;-74
2021/11/29 01:50:44;;;;;;;20.75;12.40;;;;;;;9.83;100.00;98564.12;1655835;87;21083;-73
2021/11/29 01:53:11;;;;;;;18.27;10.47;;;;;;;9.85;100.00;98562.58;1655362;87;21067;-73
2021/11/29 01:55:39;;;;;;;16.87;10.27;;;;;;;9.85;100.00;98552.59;1655863;87;21042;-72
2021/11/29 01:58:05;;;;;;;19.37;10.57;;;;;;;9.85;100.00;98558.00;1655674;87;21556;-72
2021/11/29 02:00:39;;;;;;;18.73;11.53;;;;;;;9.84;100.00;98557.70;1655740;86;21062;-72
2021/11/29 02:03:06;;;;;;;19.37;11.60;;;;;;;9.84;100.00;98553.66;1623650;88;21108;-73
2021/11/29 02:05:33;;;;;;;18.63;11.00;;;;;;;9.85;100.00;98546.38;1655854;87;21023;-72
2021/11/29 02:08:00;;;;;;;19.27;11.20;;;;;;;9.84;100.00;98546.91;1623399;88;21068;-72
2021/11/29 02:10:27;;;;;;;18.87;11.07;;;;;;;9.85;100.00;98546.38;1655831;87;21047;-72
2021/11/29 02:12:53;;;;;;;18.90;10.30;;;;;;;9.84;100.00;98541.50;1655615;87;21086;-73
2021/11/29 02:15:20;;;;;;;19.77;11.83;;;;;;;9.85;100.00;98539.63;1623762;88;21005;-74
2021/11/29 02:17:47;;;;;;;21.97;13.93;;;;;;;9.85;100.00;98539.63;1655899;86;21074;-73
2021/11/29 02:20:15;;;;;;;21.20;12.73;;;;;;;9.88;100.00;98539.23;1646972;87;21487;-74
2021/11/29 02:22:44;;;;;;;20.35;11.28;;;;;;;9.87;100.00;98534.33;1640488;87;21090;-73
2021/11/29 02:25:13;;;;;;;20.00;12.43;;;;;;;9.88;100.00;98531.13;1641029;87;21080;-73
2021/11/29 02:27:42;;;;;;;19.77;12.10;;;;;;;9.89;100.00;98537.65;1640428;87;21597;-72
2021/11/29 02:30:12;;;;;;;19.63;12.40;;;;;;;9.91;100.00;98531.23;1640626;86;21061;-73
2021/11/29 02:32:39;;;;;;;18.90;10.90;;;;;;;9.90;100.00;98525.00;1647375;85;20997;-73
2021/11/29 02:35:06;;;;;;;19.27;11.47;;;;;;;9.91;100.00;98528.00;1657060;86;21006;-73
2021/11/29 02:37:33;;;;;;;18.50;10.97;;;;;;;9.91;100.00;98523.13;1671183;86;21069;-73
2021/11/29 02:40:00;;;;;;;18.10;10.67;;;;;;;9.92;100.00;98511.30;1656856;86;21042;-72
2021/11/29 02:42:26;;;;;;;18.13;10.90;;;;;;;9.92;100.00;98511.30;1671326;86;21539;-72
2021/11/29 02:44:53;;;;;;;18.13;11.27;;;;;;;9.88;100.00;98503.60;1724010;81;21017;-73
2021/11/29 02:47:20;;;;;;;18.47;10.63;;;;;;;9.89;100.00;98509.30;1770546;81;20971;-73
2021/11/29 02:49:47;;;;;;;17.10;10.07;;;;;;;9.91;100.00;98500.17;1770576;80;21487;-73
2021/11/29 02:52:15;;;;;;;17.47;10.00;;;;;;;9.89;100.00;98494.98;1770569;80;21065;-72
2021/11/29 02:54:44;;;;;;;17.60;10.80;;;;;;;9.91;100.00;98500.17;1770565;80;20982;-72
2021/11/29 02:57:15;;;;;;;17.27;10.20;;;;;;;9.89;100.00;98499.03;1770372;81;21014;-73
2021/11/29 02:59:42;;;;;;;16.13;9.60;;;;;;;9.88;100.00;98489.28;1694877;84;21027;-73
2021/11/29 03:02:14;;;;;;;17.07;10.47;;;;;;;9.85;100.00;98478.36;1694886;85;21058;-72
2021/11/29 03:04:41;;;;;;;18.83;11.37;;;;;;;9.86;100.00;98484.58;1661456;85;21026;-72
2021/11/29 03:07:09;;;;;;;19.17;11.08;;;;;;;9.85;100.00;98482.41;1661382;86;21085;-73
2021/11/29 03:09:36;;;;;;;17.33;10.70;;;;;;;9.86;100.00;98482.73;1661218;86;21045;-73
2021/11/29 03:12:04;;;;;;;16.50;9.97;;;;;;;9.88;100.00;98489.28;1661193;86;21049;-72
2021/11/29 03:14:32;;;;;;;16.23;9.43;;;;;;;9.88;100.00;98486.05;1661265;86;21093;-73
2021/11/29 03:16:59;;;;;;;15.85;9.83;;;;;;;9.86;100.00;98473.28;1661246;86;21129;-73
2021/11/29 03:19:32;;;;;;;14.95;9.38;;;;;;;9.85;100.00;98475.66;1654302;85;21086;-72
2021/11/29 03:21:58;;;;;;;16.00;10.00;;;;;;;9.84;100.00;98475.36;1633042;88;21082;-72
2021/11/29 03:24:26;;;;;;;17.92;10.78;;;;;;;9.86;100.00;98474.64;1632709;88;21086;-73
2021/11/29 03:26:52;;;;;;;16.97;9.97;;;;;;;9.88;100.00;98487.41;1632709;88;21606;-72
2021/11/29 03:29:19;;;;;;;16.00;9.73;;;;;;;9.85;100.00;98490.50;1633002;88;21030;-73
2021/11/29 03:31:50;;;;;;;16.03;9.80;;;;;;;9.84;100.00;98481.25;1648223;87;21055;-72
2021/11/29 03:34:15;;;;;;;16.63;9.83;;;;;;;9.83;100.00;98481.78;1659115;86;20985;-72
2021/11/29 03:36:44;;;;;;;16.13;10.00;;;;;;;9.82;100.00;98476.06;1664086;86;21012;-73
2021/11/29 03:39:18;;;;;;;16.53;10.70;;;;;;;9.81;100.00;98476.26;1663986;86;21073;-72
2021/11/29 03:41:45;;;;;;;15.43;9.70;;;;;;;9.80;100.00;98469.22;1663389;86;21060;-73
2021/11/29 03:44:13;;;;;;;15.57;9.70;;;;;;;9.79;100.00;98471.09;1663822;85;21063;-72
2021/11/29 03:46:42;;;;;;;15.90;9.83;;;;;;;9.79;100.00;98470.23;1663802;86;21104;-73
2021/11/29 03:49:08;;;;;;;15.70;10.00;;;;;;;9.79;100.00;98474.28;1664189;86;21040;-73
2021/11/29 03:51:36;;;;;;;18.05;9.85;;;;;;;9.77;100.00;98462.87;1663840;86;21072;-72
2021/11/29 03:54:03;;;;;;;16.33;9.87;;;;;;;9.76;100.00;98459.34;1663875;86;21052;-73
2021/11/29 03:56:30;;;;;;;17.87;9.67;;;;;;;9.75;100.00;98459.02;1691029;83;21555;-73
2021/11/29 03:58:57;;;;;;;17.67;10.88;;;;;;;9.74;100.00;98467.31;1716712;84;21101;-74
2021/11/29 04:01:23;;;;;;;16.93;10.00;;;;;;;9.73;100.00;98472.42;1753163;80;20984;-73
2021/11/29 04:03:50;;;;;;;15.40;9.70;;;;;;;9.71;100.00;98465.05;1789909;79;21002;-71
2021/11/29 04:06:18;;;;;;;15.53;9.50;;;;;;;9.69;100.00;98469.30;1789821;80;21055;-73
2021/11/29 04:08:45;;;;;;;17.23;10.07;;;;;;;9.69;100.00;98479.56;1790186;80;21510;-73
2021/11/29 04:11:12;;;;;;;17.47;10.57;;;;;;;9.69;100.00;98486.31;1790132;80;21529;-73
2021/11/29 04:13:41;;;;;;;17.77;10.63;;;;;;;9.67;100.00;98496.48;1789883;80;21577;-73
2021/11/29 04:16:07;;;;;;;18.57;10.53;;;;;;;9.65;100.00;98487.77;1790020;80;20985;-72
2021/11/29 04:18:35;;;;;;;19.83;11.30;;;;;;;9.63;100.00;98481.74;1789897;80;21029;-73
2021/11/29 04:21:04;;;;;;;18.13;11.37;;;;;;;9.63;100.00;98485.80;1790068;80;20958;-73
2021/11/29 04:23:32;;;;;;;22.77;13.53;;;;;;;9.61;100.00;98480.27;1789872;80;20995;-72
2021/11/29 04:26:01;;;;;;;25.10;15.07;;;;;;;9.61;100.00;98478.91;1790011;80;20971;-74
2021/11/29 04:28:29;;;;;;;25.03;16.57;;;;;;;9.61;100.00;98477.04;1789672;80;21027;-74
2021/11/29 04:30:57;;;;;;;35.07;20.70;;;;;;;9.61;100.00;98484.31;1770131;80;21516;-72
2021/11/29 04:33:23;;;;;;;36.80;21.93;;;;;;;9.60;100.00;98483.48;1789952;80;21020;-73
2021/11/29 04:35:50;;;;;;;38.03;22.83;;;;;;;9.59;100.00;98473.72;1790022;80;20997;-73
2021/11/29 04:38:17;;;;;;;41.17;24.57;;;;;;;9.61;100.00;98469.47;1790047;80;21514;-73
2021/11/29 04:40:44;;;;;;;48.73;26.73;;;;;;;9.60;100.00;98459.73;1789685;80;20993;-72
2021/11/29 04:43:10;;;;;;;50.63;28.20;;;;;;;9.60;100.00;98460.55;1789906;80;21048;-73
2021/11/29 04:45:38;;;;;;;54.80;30.30;;;;;;;9.59;100.00;98461.58;1789760;80;21049;-73
2021/11/29 04:48:05;;;;;;;62.50;33.60;;;;;;;9.57;100.00;98454.73;1790063;80;21022;-72
2021/11/29 04:50:32;;;;;;;67.37;36.17;;;;;;;9.56;100.00;98470.59;1790197;80;21077;-73
2021/11/29 04:52:59;;;;;;;67.43;37.43;;;;;;;9.54;100.00;98456.48;1789843;80;21017;-74
2021/11/29 04:55:25;;;;;;;70.03;38.47;;;;;;;9.53;100.00;98452.14;1790074;80;21033;-73
2021/11/29 04:57:53;;;;;;;68.57;38.20;;;;;;;9.50;100.00;98450.13;1789612;80;21553;-72
2021/11/29 05:00:20;;;;;;;69.77;38.07;;;;;;;9.50;100.00;98437.16;1790110;80;21044;-73
2021/11/29 05:02:47;;;;;;;72.13;39.83;;;;;;;9.50;100.00;98432.59;1789746;80;21045;-73
2021/11/29 05:05:16;;;;;;;71.90;40.73;;;;;;;9.52;100.00;98424.83;1789673;80;21006;-72
2021/11/29 05:07:44;;;;;;;72.20;39.50;;;;;;;9.51;100.00;98422.66;1789809;80;21033;-73
2021/11/29 05:10:11;;;;;;;67.80;39.67;;;;;;;9.52;100.00;98422.95;1789971;80;21477;-74
2021/11/29 05:12:37;;;;;;;72.10;43.50;;;;;;;9.54;100.00;98424.09;1789965;80;21029;-74
2021/11/29 05:15:06;;;;;;;64.13;39.80;;;;;;;9.55;100.00;98429.82;1789689;80;21014;-73
2021/11/29 05:17:33;;;;;;;70.37;40.83;;;;;;;9.54;100.00;98433.55;1789776;80;21017;-73
2021/11/29 05:20:00;;;;;;;64.23;39.30;;;;;;;9.52;100.00;98432.92;1790057;80;20986;-74
2021/11/29 05:22:27;;;;;;;65.77;38.60;;;;;;;9.54;100.00;98421.41;1790006;80;21014;-73
2021/11/29 05:24:53;;;;;;;64.00;37.50;;;;;;;9.55;100.00;98423.08;1789913;80;20967;-72
2021/11/29 05:27:20;;;;;;;55.87;35.27;;;;;;;9.57;100.00;98419.66;1790160;80;21030;-73
2021/11/29 05:29:47;;;;;;;56.23;33.10;;;;;;;9.59;100.00;98417.05;1790004;80;21038;-72
2021/11/29 05:32:14;;;;;;;50.63;30.93;;;;;;;9.59;100.00;98417.05;1794736;80;21066;-74
2021/11/29 05:34:41;;;;;;;44.40;28.07;;;;;;;9.60;100.00;98405.77;1795499;80;21118;-73
2021/11/29 05:37:08;;;;;;;42.03;26.13;;;;;;;9.60;100.00;98405.23;1795282;79;21045;-73
2021/11/29 05:39:35;;;;;;;37.67;24.17;;;;;;;9.62;100.00;98412.60;1795636;80;21018;-72
2021/11/29 05:42:02;;;;;;;34.33;22.53;;;;;;;9.63;100.00;98419.67;1795566;79;21547;-73
2021/11/29 05:44:28;;;;;;;33.83;22.57;;;;;;;9.64;100.00;98407.83;1795678;80;21520;-72
2021/11/29 05:46:55;;;;;;;35.30;23.47;;;;;;;9.65;100.00;98416.25;1777683;80;21007;-73
2021/11/29 05:49:22;;;;;;;36.03;23.93;;;;;;;9.65;100.00;98412.70;1796094;80;21015;-72
2021/11/29 05:51:51;;;;;;;39.87;25.73;;;;;;;9.67;100.00;98411.47;1795773;79;21018;-74
2021/11/29 05:54:18;;;;;;;42.00;27.17;;;;;;;9.68;100.00;98411.80;1795784;80;21483;-75
2021/11/29 05:56:44;;;;;;;41.27;26.60;;;;;;;9.66;100.00;98409.80;1795888;80;21499;-74
2021/11/29 05:59:11;;;;;;;42.13;28.53;;;;;;;9.65;100.00;98420.30;1795874;80;21005;-74
2021/11/29 06:01:37;;;;;;;46.03;29.70;;;;;;;9.65;100.00;98410.00;1795965;79;21045;-73
2021/11/29 06:04:04;;;;;;;39.83;26.43;;;;;;;9.63;100.00;98414.27;1795763;80;20974;-73
2021/11/29 06:06:31;;;;;;;33.33;22.40;;;;;;;9.61;100.00;98407.41;1795822;80;21500;-74
2021/11/29 06:08:57;;;;;;;34.03;22.17;;;;;;;9.60;100.00;98404.41;1795688;79;20986;-73
2021/11/29 06:11:25;;;;;;;31.37;20.27;;;;;;;9.58;100.00;98392.47;1795467;79;21035;-71
2021/11/29 06:13:52;;;;;;;31.10;20.27;;;;;;;9.58;100.00;98389.77;1795892;80;20984;-73
2021/11/29 06:16:20;;;;;;;33.13;21.80;;;;;;;9.57;100.00;98399.41;1795432;79;21458;-72
2021/11/29 06:18:48;;;;;;;31.33;21.07;;;;;;;9.56;100.00;98397.73;1795472;80;21348;-75
2021/11/29 06:21:15;;;;;;;33.60;22.23;;;;;;;9.55;100.00;98391.52;1794980;80;20956;-74
2021/11/29 06:23:41;;;;;;;33.17;23.00;;;;;;;9.56;100.00;98390.99;1795527;79;20990;-72
2021/11/29 06:26:08;;;;;;;39.20;25.33;;;;;;;9.55;100.00;98375.86;1795255;80;20979;-74
2021/11/29 06:28:35;;;;;;;35.07;23.43;;;;;;;9.55;100.00;98372.63;1795734;80;21468;-73
2021/11/29 06:31:02;;;;;;;30.70;21.03;;;;;;;9.55;100.00;98369.94;1791180;80;21052;-73
2021/11/29 06:33:30;;;;;;;28.70;19.07;;;;;;;9.55;100.00;98373.98;1777485;80;21004;-71
2021/11/29 06:35:58;;;;;;;24.47;15.77;;;;;;;9.50;100.00;98386.72;1781265;80;21048;-74
2021/11/29 06:38:26;;;;;;;25.33;15.83;;;;;;;9.48;100.00;98389.33;1781608;80;21466;-71
2021/11/29 06:40:57;;;;;;;21.63;13.37;;;;;;;9.46;100.00;98384.66;1781578;80;20957;-71
2021/11/29 06:43:24;;;;;;;23.70;13.00;;;;;;;9.44;100.00;98381.34;1781737;80;21335;-72
2021/11/29 06:45:51;;;;;;;20.23;11.73;;;;;;;9.41;100.00;98381.21;1778078;80;21461;-71
2021/11/29 06:48:18;;;;;;;17.17;10.80;;;;;;;9.41;100.00;98376.34;1781493;80;21436;-72
2021/11/29 06:50:46;;;;;;;16.53;10.10;;;;;;;9.37;100.00;98377.27;1781843;80;20932;-72
2021/11/29 06:53:15;;;;;;;18.87;10.73;;;;;;;9.36;100.00;98381.52;1781707;80;21049;-73
2021/11/29 06:55:45;;;;;;;18.47;10.97;;;;;;;9.35;100.00;98385.23;1781078;80;20982;-73
2021/11/29 06:58:11;;;;;;;17.73;9.87;;;;;;;9.36;100.00;98382.34;1735936;82;21030;-72
2021/11/29 07:00:38;;;;;;;18.10;9.50;;;;;;;9.37;100.00;98378.62;1712921;82;21574;-72
2021/11/29 07:03:04;;;;;;;14.53;8.90;;;;;;;9.36;100.00;98381.52;1778795;81;21138;-72
2021/11/29 07:05:31;;;;;;;16.70;9.20;;;;;;;9.32;100.00;98381.09;1780449;80;20977;-74
2021/11/29 07:07:58;;;;;;;15.73;9.20;;;;;;;9.29;100.00;98383.66;1781703;80;20953;-72
2021/11/29 07:10:26;;;;;;;18.17;9.40;;;;;;;9.26;100.00;98383.23;1781775;80;20991;-73
2021/11/29 07:12:55;;;;;;;16.70;10.17;;;;;;;9.25;100.00;98377.55;1781370;80;20969;-73
2021/11/29 07:15:24;;;;;;;17.90;10.23;;;;;;;9.26;100.00;98379.19;1781362;80;21008;-72
2021/11/29 07:17:51;;;;;;;21.40;12.07;;;;;;;9.27;100.00;98370.08;1781712;80;21030;-72
2021/11/29 07:20:18;;;;;;;27.80;13.97;;;;;;;9.29;100.00;98370.70;1781783;80;20964;-73
2021/11/29 07:22:45;;;;;;;21.00;13.27;;;;;;;9.28;100.00;98362.31;1781512;79;21498;-72
2021/11/29 07:25:11;;;;;;;23.07;13.60;;;;;;;9.30;100.00;98356.20;1781538;79;20968;-72
2021/11/29 07:27:38;;;;;;;20.43;12.47;;;;;;;9.31;100.00;98360.05;1781355;80;21056;-74
2021/11/29 07:30:07;;;;;;;23.23;13.23;;;;;;;9.34;100.00;98358.79;1781068;80;21036;-74
2021/11/29 07:32:36;;;;;;;23.87;14.70;;;;;;;9.35;100.00;98359.61;1787921;79;21077;-74
2021/11/29 07:35:06;;;;;;;27.87;16.40;;;;;;;9.36;100.00;98345.92;1785334;80;20975;-75
2021/11/29 07:37:34;;;;;;;20.37;12.73;;;;;;;9.38;100.00;98343.02;1790014;80;21029;-75
2021/11/29 07:40:02;;;;;;;19.53;11.47;;;;;;;9.42;100.00;98330.28;1797900;79;20990;-73
2021/11/29 07:42:30;;;;;;;18.23;11.10;;;;;;;9.44;100.00;98331.43;1792405;79;21476;-71
2021/11/29 07:44:57;;;;;;;19.10;11.80;;;;;;;9.42;100.00;98324.89;1791670;79;21064;-75
2021/11/29 07:47:25;;;;;;;21.63;12.97;;;;;;;9.45;100.00;98319.05;1762502;79;21069;-75
2021/11/29 07:49:53;;;;;;;29.23;13.80;;;;;;;9.47;100.00;98308.06;1794468;79;20995;-75
2021/11/29 07:52:20;;;;;;;18.60;11.33;;;;;;;9.47;100.00;98307.56;1798320;79;20989;-75
2021/11/29 07:54:47;;;;;;;19.33;11.17;;;;;;;9.46;100.00;98305.89;1791962;79;21026;-71
2021/11/29 07:57:16;;;;;;;17.40;10.13;;;;;;;9.48;100.00;98303.00;1782391;79;21271;-74
2021/11/29 07:59:44;;;;;;;20.37;12.77;;;;;;;9.50;100.00;98307.66;1792361;79;20987;-72
2021/11/29 08:02:12;;;;;;;16.87;9.50;;;;;;;9.52;100.00;98308.81;1793174;79;20959;-74
2021/11/29 08:04:39;;;;;;;18.13;10.03;;;;;;;9.57;100.00;98303.63;1794831;79;21032;-73
2021/11/29 08:07:06;;;;;;;19.70;9.97;;;;;;;9.60;100.00;98307.27;1795869;79;21028;-71
2021/11/29 08:09:33;;;;;;;19.13;10.23;;;;;;;9.62;100.00;98311.94;1789218;80;21448;-71
2021/11/29 08:12:00;;;;;;;17.87;9.90;;;;;;;9.64;100.00;98288.27;1789292;80;21038;-73
2021/11/29 08:14:27;;;;;;;20.50;10.83;;;;;;;9.64;100.00;98302.58;1755418;81;21029;-71
2021/11/29 08:16:55;;;;;;;20.60;11.00;;;;;;;9.66;100.00;98296.98;1789866;79;20968;-69
2021/11/29 08:19:21;;;;;;;18.53;10.73;;;;;;;9.66;100.00;98279.44;1789704;80;21059;-70
2021/11/29 08:21:48;;;;;;;21.90;10.97;;;;;;;9.67;100.00;98270.31;1789641;79;20989;-71
2021/11/29 08:24:15;;;;;;;18.37;10.27;;;;;;;9.67;100.00;98257.64;1792950;79;20986;-71
2021/11/29 08:26:42;;;;;;;19.17;10.30;;;;;;;9.71;100.00;98261.28;1791960;79;21532;-72
2021/11/29 08:29:09;;;;;;;18.47;9.20;;;;;;;9.74;100.00;98259.48;1792662;79;21022;-72
2021/11/29 08:31:36;;;;;;;16.97;9.20;;;;;;;9.72;100.00;98257.03;1788318;79;20964;-74
2021/11/29 08:34:03;;;;;;;17.97;9.20;;;;;;;9.74;100.00;98250.89;1783973;79;21469;-73
2021/11/29 08:36:30;;;;;;;18.47;9.97;;;;;;;9.71;100.00;98251.83;1784018;79;21040;-73
2021/11/29 08:38:57;;;;;;;16.93;9.67;;;;;;;9.68;100.00;98255.77;1777159;80;21039;-74
2021/11/29 08:41:24;;;;;;;18.47;9.40;;;;;;;9.69;100.00;98246.64;1779043;80;21032;-76
2021/11/29 08:43:51;;;;;;;20.20;10.47;;;;;;;9.69;100.00;98238.02;1780259;80;21011;-72
2021/11/29 08:46:20;;;;;;;18.43;10.77;;;;;;;9.68;100.00;98235.52;1777633;80;20999;-72
2021/11/29 08:48:47;;;;;;;18.87;10.93;;;;;;;9.68;100.00;98226.08;1783666;80;20985;-71
2021/11/29 08:51:16;;;;;;;17.10;8.93;;;;;;;9.68;100.00;98208.53;1781287;80;20978;-70
2021/11/29 08:53:45;;;;;;;15.67;9.03;;;;;;;9.68;100.00;98206.69;1789522;79;20974;-71
2021/11/29 08:56:12;;;;;;;18.43;9.33;;;;;;;9.68;100.00;98203.14;1793962;79;20936;-72
2021/11/29 08:58:39;;;;;;;18.80;10.20;;;;;;;9.67;100.00;98205.02;1779378;80;20946;-70
2021/11/29 09:01:05;;;;;;;18.77;9.20;;;;;;;9.67;100.00;98201.50;1779114;79;21030;-70
2021/11/29 09:03:32;;;;;;;19.10;10.13;;;;;;;9.64;100.00;98195.16;1777890;80;20991;-72
2021/11/29 09:06:00;;;;;;;23.80;12.60;;;;;;;9.60;100.00;98185.84;1779831;80;20987;-69
2021/11/29 09:08:27;;;;;;;23.03;11.80;;;;;;;9.60;100.00;98177.74;1776008;80;20997;-70
2021/11/29 09:10:55;;;;;;;24.80;13.70;;;;;;;9.59;100.00;98172.02;1777467;80;21007;-71
2021/11/29 09:13:22;;;;;;;26.70;15.30;;;;;;;9.56;100.00;98167.04;1776353;80;21103;-71
2021/11/29 09:15:49;;;;;;;34.13;20.33;;;;;;;9.58;100.00;98164.95;1775393;79;21018;-73
2021/11/29 09:18:15;;;;;;;29.80;18.00;;;;;;;9.60;100.00;98152.93;1776800;79;21006;-74
2021/11/29 09:20:42;;;;;;;30.20;17.00;;;;;;;9.61;100.00;98149.70;1775487;80;21015;-71
2021/11/29 09:23:12;;;;;;;31.00;17.87;;;;;;;9.63;100.00;98130.92;1779374;80;21651;-69
2021/11/29 09:25:42;;;;;;;41.37;22.02;;;;;;;9.67;100.00;98116.48;1789684;79;21450;-71
2021/11/29 09:28:10;;;;;;;34.10;18.37;;;;;;;9.71;100.00;98106.09;1774790;79;21077;-71
2021/11/29 09:30:38;;;;;;;28.30;15.85;;;;;;;9.74;100.00;98093.00;1782262;79;20971;-70
2021/11/29 09:33:05;;;;;;;33.20;16.23;;;;;;;9.78;100.00;98084.78;1789804;80;21022;-71
2021/11/29 09:35:37;;;;;;;26.95;14.60;;;;;;;9.81;100.00;98081.66;1797395;79;21080;-70
2021/11/29 09:38:05;;;;;;;28.35;14.98;;;;;;;9.85;100.00;98080.71;1801406;78;21013;-72
2021/11/29 09:40:35;;;;;;;24.93;12.50;;;;;;;9.88;100.00;98055.99;1795184;79;21443;-72
2021/11/29 09:43:03;;;;;;;20.93;10.83;;;;;;;9.88;100.00;98060.86;1795877;79;20990;-73
2021/11/29 09:45:32;;;;;;;21.20;10.90;;;;;;;9.92;100.00;98042.36;1813713;79;20962;-72
2021/11/29 09:47:59;;;;;;;24.50;13.40;;;;;;;9.92;100.00;98045.59;1796256;79;21022;-72
2021/11/29 09:50:26;;;;;;;22.10;12.03;;;;;;;9.93;100.00;98036.44;1796033;79;20955;-71
2021/11/29 09:52:53;;;;;;;24.43;12.10;;;;;;;9.95;100.00;98039.73;1804074;79;21017;-71
2021/11/29 09:55:25;;;;;;;23.87;11.83;;;;;;;9.95;100.00;98029.79;1796450;79;21429;-73
2021/11/29 09:57:52;;;;;;;20.53;10.60;;;;;;;9.99;100.00;98023.44;1796391;79;21014;-74
2021/11/29 10:00:27;;;;;;;21.47;10.77;;;;;;;10.01;100.00;98007.84;1794660;79;20951;-72
2021/11/29 10:02:54;;;;;;;24.80;12.00;;;;;;;10.03;100.00;97990.89;1794182;79;21055;-73
2021/11/29 10:05:22;;;;;;;21.02;10.05;;;;;;;10.04;100.00;97984.47;1795860;79;21032;-76
2021/11/29 10:07:49;;;;;;;18.80;8.40;;;;;;;10.05;100.00;97990.97;1796153;79;21456;-75
2021/11/29 10:10:25;;;;;;;21.60;10.37;;;;;;;10.04;100.00;97981.23;1799179;79;20953;-75
2021/11/29 10:13:00;;;;;;;20.60;9.63;;;;;;;10.03;100.00;97978.21;1800479;79;21014;-74
2021/11/29 10:15:41;;;;;;;18.77;10.10;;;;;;;10.01;100.00;97972.74;1765646;80;20982;-73
2021/11/29 10:18:23;;;;;;;17.73;8.10;;;;;;;9.98;100.00;97994.77;1792839;80;20960;-73
2021/11/29 10:21:06;;;;;;;13.73;7.43;;;;;;;9.94;100.00;97978.70;1705702;84;21200;-71
2021/11/29 10:23:44;;;;;;;17.37;7.42;;;;;;;9.93;100.00;97981.09;1706386;84;21046;-69
2021/11/29 10:26:21;;;;;;;18.70;7.40;;;;;;;9.93;100.00;97951.39;1687613;83;21070;-71
2021/11/29 10:28:55;;;;;;;16.77;7.07;;;;;;;9.93;100.00;97940.06;1678621;83;21103;-73
2021/11/29 10:31:37;;;;;;;16.20;6.97;;;;;;;9.95;100.00;97941.20;1630775;88;20987;-74
2021/11/29 10:34:17;;;;;;;17.97;7.43;;;;;;;9.99;100.00;97945.14;1566316;89;21139;-73
2021/11/29 10:36:51;;;;;;;17.42;7.10;;;;;;;10.02;100.00;97935.23;1577545;89;21531;-73
2021/11/29 10:39:27;;;;;;;19.17;8.17;;;;;;;10.08;100.00;97920.87;1555988;92;21108;-72
2021/11/29 10:41:57;;;;;;;16.67;6.90;;;;;;;10.12;100.00;97901.81;1558822;91;21134;-71
2021/11/29 10:44:27;;;;;;;18.50;8.90;;;;;;;10.17;100.00;97881.73;1569806;90;21045;-71
2021/11/29 10:46:58;;;;;;;26.37;13.58;;;;;;;10.24;100.00;97874.39;1579716;90;21000;-69
2021/11/29 10:49:29;;;;;;;25.70;11.27;;;;;;;10.31;100.00;97858.16;1569470;90;21086;-70
2021/11/29 10:51:59;;;;;;;21.17;10.07;;;;;;;10.40;100.00;97838.44;1570766;90;21231;-69
2021/11/29 10:54:28;;;;;;;28.98;14.58;;;;;;;10.49;100.00;97829.52;1574189;90;21129;-71
2021/11/29 10:56:56;;;;;;;24.50;10.40;;;;;;;10.56;100.00;97825.69;1569107;90;21045;-69
2021/11/29 10:59:26;;;;;;;24.47;10.37;;;;;;;10.62;100.00;97818.55;1571946;90;21653;-69
2021/11/29 11:01:59;;;;;;;24.35;10.28;;;;;;;10.68;100.00;97815.46;1564820;91;21071;-69
2021/11/29 11:04:29;;;;;;;;;;;;;;;10.73;100.00;97803.45;1575085;90;21097;-68
2021/11/29 11:07:12;;;;;;;20.97;8.33;;;;;;;10.77;100.00;97783.86;1570295;90;20444;-68
2021/11/29 11:09:49;;;;;;;22.55;8.08;;;;;;;10.80;100.00;97785.27;1578378;90;21166;-69
2021/11/29 11:12:16;;;;;;;18.98;7.95;;;;;;;10.83;100.00;97786.17;1576786;90;21134;-68
2021/11/29 11:14:48;;;;;;;21.17;7.67;;;;;;;10.85;100.00;97813.80;1549537;91;21177;-69
2021/11/29 11:17:14;;;;;;;19.87;7.70;;;;;;;10.88;100.00;97782.26;1539247;93;21081;-70
2021/11/29 11:19:48;;;;;;;27.40;13.00;;;;;;;10.89;100.00;97778.52;1550602;91;21046;-69
2021/11/29 11:22:33;;;;;;;22.50;10.20;;;;;;;10.96;100.00;97758.13;1554269;91;21047;-71
2021/11/29 11:25:11;;;;;;;20.82;8.40;;;;;;;11.01;100.00;97782.09;1566131;90;21157;-72